sensor_id;sensor_type;location;lat;lon;timestamp;P1;durP1;ratioP1;P2;durP2;ratioP2
31730;SDS011;18310;55.586;12.286;2022-12-18T00:01:00;17.63;;;8.63;;
31730;SDS011;18310;55.586;12.286;2022-12-18T00:04:10;19.15;;;8.60;;
31730;SDS011;18310;55.586;12.286;2022-12-18T00:07:29;20.02;;;8.57;;
31730;SDS011;18310;55.586;12.286;2022-12-18T00:10:32;17.88;;;7.93;;
31730;SDS011;18310;55.586;12.286;2022-12-18T00:13:35;16.43;;;8.77;;
31730;SDS011;18310;55.586;12.286;2022-12-18T00:16:39;13.60;;;7.57;;
31730;SDS011;18310;55.586;12.286;2022-12-18T00:19:44;16.20;;;8.35;;
31730;SDS011;18310;55.586;12.286;2022-12-18T00:22:49;14.75;;;7.20;;
31730;SDS011;18310;55.586;12.286;2022-12-18T00:25:52;18.83;;;8.07;;
31730;SDS011;18310;55.586;12.286;2022-12-18T00:28:57;16.13;;;7.85;;
31730;SDS011;18310;55.586;12.286;2022-12-18T00:32:02;13.35;;;7.22;;
31730;SDS011;18310;55.586;12.286;2022-12-18T00:35:05;12.95;;;6.63;;
31730;SDS011;18310;55.586;12.286;2022-12-18T00:38:11;16.90;;;8.15;;
31730;SDS011;18310;55.586;12.286;2022-12-18T00:41:15;15.23;;;6.78;;
31730;SDS011;18310;55.586;12.286;2022-12-18T00:44:39;13.80;;;7.07;;
31730;SDS011;18310;55.586;12.286;2022-12-18T00:47:42;13.15;;;7.32;;
31730;SDS011;18310;55.586;12.286;2022-12-18T00:50:46;15.20;;;7.10;;
31730;SDS011;18310;55.586;12.286;2022-12-18T00:53:52;14.77;;;7.55;;
31730;SDS011;18310;55.586;12.286;2022-12-18T00:56:55;17.45;;;6.63;;
31730;SDS011;18310;55.586;12.286;2022-12-18T00:59:58;12.73;;;7.60;;
31730;SDS011;18310;55.586;12.286;2022-12-18T01:03:02;13.75;;;7.05;;
31730;SDS011;18310;55.586;12.286;2022-12-18T01:06:06;13.13;;;7.25;;
31730;SDS011;18310;55.586;12.286;2022-12-18T01:09:11;17.20;;;7.90;;
31730;SDS011;18310;55.586;12.286;2022-12-18T01:12:14;15.82;;;7.60;;
31730;SDS011;18310;55.586;12.286;2022-12-18T01:15:18;13.73;;;7.70;;
31730;SDS011;18310;55.586;12.286;2022-12-18T01:18:22;16.23;;;7.28;;
31730;SDS011;18310;55.586;12.286;2022-12-18T01:21:25;17.63;;;8.40;;
31730;SDS011;18310;55.586;12.286;2022-12-18T01:24:30;17.45;;;7.47;;
31730;SDS011;18310;55.586;12.286;2022-12-18T01:27:33;14.45;;;7.78;;
31730;SDS011;18310;55.586;12.286;2022-12-18T01:30:36;13.63;;;7.57;;
31730;SDS011;18310;55.586;12.286;2022-12-18T01:33:39;15.20;;;7.27;;
31730;SDS011;18310;55.586;12.286;2022-12-18T01:36:43;13.25;;;7.40;;
31730;SDS011;18310;55.586;12.286;2022-12-18T01:39:47;14.90;;;7.83;;
31730;SDS011;18310;55.586;12.286;2022-12-18T01:42:51;14.80;;;7.32;;
31730;SDS011;18310;55.586;12.286;2022-12-18T01:45:55;14.63;;;7.38;;
31730;SDS011;18310;55.586;12.286;2022-12-18T01:49:02;16.88;;;7.72;;
31730;SDS011;18310;55.586;12.286;2022-12-18T01:52:05;13.17;;;7.20;;
31730;SDS011;18310;55.586;12.286;2022-12-18T01:55:10;13.43;;;7.47;;
31730;SDS011;18310;55.586;12.286;2022-12-18T01:58:15;14.73;;;7.53;;
31730;SDS011;18310;55.586;12.286;2022-12-18T02:01:20;14.18;;;7.43;;
31730;SDS011;18310;55.586;12.286;2022-12-18T02:04:26;15.30;;;7.55;;
31730;SDS011;18310;55.586;12.286;2022-12-18T02:07:33;15.18;;;7.38;;
31730;SDS011;18310;55.586;12.286;2022-12-18T02:10:50;16.15;;;8.25;;
31730;SDS011;18310;55.586;12.286;2022-12-18T02:14:10;13.38;;;7.28;;
31730;SDS011;18310;55.586;12.286;2022-12-18T02:17:25;17.20;;;7.22;;
31730;SDS011;18310;55.586;12.286;2022-12-18T02:20:39;17.30;;;7.22;;
31730;SDS011;18310;55.586;12.286;2022-12-18T02:23:51;13.43;;;7.13;;
31730;SDS011;18310;55.586;12.286;2022-12-18T02:27:06;14.63;;;6.70;;
31730;SDS011;18310;55.586;12.286;2022-12-18T02:30:13;13.35;;;7.32;;
31730;SDS011;18310;55.586;12.286;2022-12-18T02:33:17;15.60;;;7.63;;
31730;SDS011;18310;55.586;12.286;2022-12-18T02:36:23;15.55;;;7.47;;
31730;SDS011;18310;55.586;12.286;2022-12-18T02:39:29;15.52;;;7.22;;
31730;SDS011;18310;55.586;12.286;2022-12-18T02:42:35;13.70;;;7.45;;
31730;SDS011;18310;55.586;12.286;2022-12-18T02:45:45;17.90;;;7.22;;
31730;SDS011;18310;55.586;12.286;2022-12-18T02:48:53;11.82;;;6.93;;
31730;SDS011;18310;55.586;12.286;2022-12-18T02:52:11;12.82;;;6.88;;
31730;SDS011;18310;55.586;12.286;2022-12-18T02:55:33;13.35;;;7.43;;
31730;SDS011;18310;55.586;12.286;2022-12-18T02:58:56;14.53;;;6.87;;
31730;SDS011;18310;55.586;12.286;2022-12-18T03:02:10;12.18;;;7.28;;
31730;SDS011;18310;55.586;12.286;2022-12-18T03:05:29;13.15;;;7.30;;
31730;SDS011;18310;55.586;12.286;2022-12-18T03:08:39;18.98;;;7.68;;
31730;SDS011;18310;55.586;12.286;2022-12-18T03:11:48;14.77;;;8.15;;
31730;SDS011;18310;55.586;12.286;2022-12-18T03:15:17;18.77;;;7.70;;
31730;SDS011;18310;55.586;12.286;2022-12-18T03:18:29;16.75;;;8.25;;
31730;SDS011;18310;55.586;12.286;2022-12-18T03:21:38;17.20;;;7.72;;
31730;SDS011;18310;55.586;12.286;2022-12-18T03:24:45;18.90;;;8.48;;
31730;SDS011;18310;55.586;12.286;2022-12-18T03:27:51;16.05;;;8.40;;
31730;SDS011;18310;55.586;12.286;2022-12-18T03:31:00;13.45;;;7.35;;
31730;SDS011;18310;55.586;12.286;2022-12-18T03:34:09;16.77;;;8.10;;
31730;SDS011;18310;55.586;12.286;2022-12-18T03:37:20;16.67;;;7.82;;
31730;SDS011;18310;55.586;12.286;2022-12-18T03:40:24;15.17;;;8.03;;
31730;SDS011;18310;55.586;12.286;2022-12-18T03:43:36;13.15;;;7.38;;
31730;SDS011;18310;55.586;12.286;2022-12-18T03:46:52;13.60;;;8.07;;
31730;SDS011;18310;55.586;12.286;2022-12-18T03:50:03;16.80;;;7.80;;
31730;SDS011;18310;55.586;12.286;2022-12-18T03:53:22;12.13;;;7.13;;
31730;SDS011;18310;55.586;12.286;2022-12-18T03:56:35;13.63;;;7.22;;
31730;SDS011;18310;55.586;12.286;2022-12-18T03:59:44;14.63;;;7.47;;
31730;SDS011;18310;55.586;12.286;2022-12-18T04:02:54;12.15;;;7.13;;
31730;SDS011;18310;55.586;12.286;2022-12-18T04:05:59;16.10;;;6.68;;
31730;SDS011;18310;55.586;12.286;2022-12-18T04:09:05;12.82;;;6.82;;
31730;SDS011;18310;55.586;12.286;2022-12-18T04:12:09;12.88;;;6.68;;
31730;SDS011;18310;55.586;12.286;2022-12-18T04:15:12;14.40;;;6.40;;
31730;SDS011;18310;55.586;12.286;2022-12-18T04:18:18;14.93;;;6.38;;
31730;SDS011;18310;55.586;12.286;2022-12-18T04:21:21;11.68;;;6.55;;
31730;SDS011;18310;55.586;12.286;2022-12-18T04:24:24;12.37;;;6.00;;
31730;SDS011;18310;55.586;12.286;2022-12-18T04:27:27;13.50;;;5.80;;
31730;SDS011;18310;55.586;12.286;2022-12-18T04:30:30;14.35;;;5.85;;
31730;SDS011;18310;55.586;12.286;2022-12-18T04:33:35;10.23;;;6.15;;
31730;SDS011;18310;55.586;12.286;2022-12-18T04:36:38;11.95;;;6.63;;
31730;SDS011;18310;55.586;12.286;2022-12-18T04:39:42;14.03;;;6.43;;
31730;SDS011;18310;55.586;12.286;2022-12-18T04:42:45;12.70;;;5.37;;
31730;SDS011;18310;55.586;12.286;2022-12-18T04:45:48;12.82;;;6.53;;
31730;SDS011;18310;55.586;12.286;2022-12-18T04:48:52;11.80;;;5.77;;
31730;SDS011;18310;55.586;12.286;2022-12-18T04:51:55;9.18;;;5.63;;
31730;SDS011;18310;55.586;12.286;2022-12-18T04:54:58;11.83;;;6.00;;
31730;SDS011;18310;55.586;12.286;2022-12-18T04:58:01;10.23;;;6.10;;
31730;SDS011;18310;55.586;12.286;2022-12-18T05:01:05;12.57;;;6.17;;
31730;SDS011;18310;55.586;12.286;2022-12-18T05:04:10;11.57;;;6.18;;
31730;SDS011;18310;55.586;12.286;2022-12-18T05:07:13;10.25;;;5.40;;
31730;SDS011;18310;55.586;12.286;2022-12-18T05:10:16;11.07;;;6.53;;
31730;SDS011;18310;55.586;12.286;2022-12-18T05:13:19;9.10;;;5.60;;
31730;SDS011;18310;55.586;12.286;2022-12-18T05:16:22;13.88;;;5.82;;
31730;SDS011;18310;55.586;12.286;2022-12-18T05:19:27;14.13;;;6.35;;
31730;SDS011;18310;55.586;12.286;2022-12-18T05:22:30;10.63;;;5.53;;
31730;SDS011;18310;55.586;12.286;2022-12-18T05:25:33;9.40;;;5.45;;
31730;SDS011;18310;55.586;12.286;2022-12-18T05:28:36;12.02;;;6.25;;
31730;SDS011;18310;55.586;12.286;2022-12-18T05:31:39;12.57;;;5.60;;
31730;SDS011;18310;55.586;12.286;2022-12-18T05:34:45;16.58;;;5.85;;
31730;SDS011;18310;55.586;12.286;2022-12-18T05:37:48;11.90;;;6.38;;
31730;SDS011;18310;55.586;12.286;2022-12-18T05:40:51;11.37;;;6.20;;
31730;SDS011;18310;55.586;12.286;2022-12-18T05:43:55;11.15;;;5.68;;
31730;SDS011;18310;55.586;12.286;2022-12-18T05:46:58;11.13;;;5.97;;
31730;SDS011;18310;55.586;12.286;2022-12-18T05:50:03;13.03;;;6.40;;
31730;SDS011;18310;55.586;12.286;2022-12-18T05:53:08;11.65;;;5.72;;
31730;SDS011;18310;55.586;12.286;2022-12-18T05:56:12;13.82;;;6.00;;
31730;SDS011;18310;55.586;12.286;2022-12-18T05:59:19;12.45;;;5.78;;
31730;SDS011;18310;55.586;12.286;2022-12-18T06:02:23;12.10;;;5.53;;
31730;SDS011;18310;55.586;12.286;2022-12-18T06:05:27;12.40;;;5.80;;
31730;SDS011;18310;55.586;12.286;2022-12-18T06:08:31;10.70;;;5.72;;
31730;SDS011;18310;55.586;12.286;2022-12-18T06:11:34;10.27;;;5.80;;
31730;SDS011;18310;55.586;12.286;2022-12-18T06:14:41;11.70;;;5.80;;
31730;SDS011;18310;55.586;12.286;2022-12-18T06:17:44;10.57;;;6.40;;
31730;SDS011;18310;55.586;12.286;2022-12-18T06:20:55;10.53;;;6.13;;
31730;SDS011;18310;55.586;12.286;2022-12-18T06:23:59;10.82;;;5.68;;
31730;SDS011;18310;55.586;12.286;2022-12-18T06:27:02;12.35;;;6.43;;
31730;SDS011;18310;55.586;12.286;2022-12-18T06:30:06;14.73;;;6.40;;
31730;SDS011;18310;55.586;12.286;2022-12-18T06:33:11;17.75;;;7.43;;
31730;SDS011;18310;55.586;12.286;2022-12-18T06:36:15;11.20;;;6.40;;
31730;SDS011;18310;55.586;12.286;2022-12-18T06:39:18;9.23;;;5.70;;
31730;SDS011;18310;55.586;12.286;2022-12-18T06:42:21;14.57;;;7.07;;
31730;SDS011;18310;55.586;12.286;2022-12-18T06:45:25;11.83;;;6.50;;
31730;SDS011;18310;55.586;12.286;2022-12-18T06:48:28;13.35;;;7.07;;
31730;SDS011;18310;55.586;12.286;2022-12-18T06:51:33;13.27;;;6.37;;
31730;SDS011;18310;55.586;12.286;2022-12-18T06:54:36;13.93;;;7.47;;
31730;SDS011;18310;55.586;12.286;2022-12-18T06:57:39;10.30;;;6.45;;
31730;SDS011;18310;55.586;12.286;2022-12-18T07:00:42;11.27;;;6.57;;
31730;SDS011;18310;55.586;12.286;2022-12-18T07:03:45;13.65;;;6.50;;
31730;SDS011;18310;55.586;12.286;2022-12-18T07:06:54;12.80;;;7.10;;
31730;SDS011;18310;55.586;12.286;2022-12-18T07:09:58;12.50;;;7.68;;
31730;SDS011;18310;55.586;12.286;2022-12-18T07:13:01;15.43;;;7.23;;
31730;SDS011;18310;55.586;12.286;2022-12-18T07:16:05;12.73;;;7.13;;
31730;SDS011;18310;55.586;12.286;2022-12-18T07:19:18;13.63;;;6.72;;
31730;SDS011;18310;55.586;12.286;2022-12-18T07:22:31;16.48;;;7.88;;
31730;SDS011;18310;55.586;12.286;2022-12-18T07:25:35;11.73;;;6.03;;
31730;SDS011;18310;55.586;12.286;2022-12-18T07:28:39;14.82;;;7.28;;
31730;SDS011;18310;55.586;12.286;2022-12-18T07:31:43;14.15;;;7.30;;
31730;SDS011;18310;55.586;12.286;2022-12-18T07:34:47;12.38;;;7.25;;
31730;SDS011;18310;55.586;12.286;2022-12-18T07:37:51;13.43;;;7.37;;
31730;SDS011;18310;55.586;12.286;2022-12-18T07:40:54;13.45;;;7.40;;
31730;SDS011;18310;55.586;12.286;2022-12-18T07:44:02;20.25;;;7.38;;
31730;SDS011;18310;55.586;12.286;2022-12-18T07:47:06;11.55;;;6.88;;
31730;SDS011;18310;55.586;12.286;2022-12-18T07:50:12;14.25;;;6.53;;
31730;SDS011;18310;55.586;12.286;2022-12-18T07:53:17;14.13;;;7.70;;
31730;SDS011;18310;55.586;12.286;2022-12-18T07:56:20;12.25;;;6.38;;
31730;SDS011;18310;55.586;12.286;2022-12-18T07:59:29;10.75;;;6.13;;
31730;SDS011;18310;55.586;12.286;2022-12-18T08:02:32;11.55;;;6.90;;
31730;SDS011;18310;55.586;12.286;2022-12-18T08:05:35;12.13;;;6.23;;
31730;SDS011;18310;55.586;12.286;2022-12-18T08:08:40;12.75;;;6.60;;
31730;SDS011;18310;55.586;12.286;2022-12-18T08:11:43;14.57;;;6.30;;
31730;SDS011;18310;55.586;12.286;2022-12-18T08:14:47;14.77;;;7.10;;
31730;SDS011;18310;55.586;12.286;2022-12-18T08:17:50;14.75;;;6.78;;
31730;SDS011;18310;55.586;12.286;2022-12-18T08:20:53;12.23;;;6.53;;
31730;SDS011;18310;55.586;12.286;2022-12-18T08:23:58;14.83;;;6.63;;
31730;SDS011;18310;55.586;12.286;2022-12-18T08:27:03;12.45;;;6.57;;
31730;SDS011;18310;55.586;12.286;2022-12-18T08:30:26;11.75;;;6.68;;
31730;SDS011;18310;55.586;12.286;2022-12-18T08:33:29;15.47;;;7.30;;
31730;SDS011;18310;55.586;12.286;2022-12-18T08:36:32;10.48;;;6.10;;
31730;SDS011;18310;55.586;12.286;2022-12-18T08:39:36;11.97;;;7.00;;
31730;SDS011;18310;55.586;12.286;2022-12-18T08:42:39;11.73;;;7.53;;
31730;SDS011;18310;55.586;12.286;2022-12-18T08:46:00;12.77;;;7.18;;
31730;SDS011;18310;55.586;12.286;2022-12-18T08:49:04;14.53;;;7.27;;
31730;SDS011;18310;55.586;12.286;2022-12-18T08:52:09;17.35;;;7.80;;
31730;SDS011;18310;55.586;12.286;2022-12-18T08:55:13;14.73;;;6.93;;
31730;SDS011;18310;55.586;12.286;2022-12-18T08:58:16;12.20;;;6.90;;
31730;SDS011;18310;55.586;12.286;2022-12-18T09:01:20;10.43;;;6.70;;
31730;SDS011;18310;55.586;12.286;2022-12-18T09:07:26;13.95;;;7.30;;
31730;SDS011;18310;55.586;12.286;2022-12-18T09:10:31;16.58;;;7.47;;
31730;SDS011;18310;55.586;12.286;2022-12-18T09:13:40;13.00;;;7.18;;
31730;SDS011;18310;55.586;12.286;2022-12-18T09:16:43;14.52;;;7.60;;
31730;SDS011;18310;55.586;12.286;2022-12-18T09:19:46;15.07;;;7.15;;
31730;SDS011;18310;55.586;12.286;2022-12-18T09:22:50;17.63;;;8.52;;
31730;SDS011;18310;55.586;12.286;2022-12-18T09:25:59;16.33;;;8.20;;
31730;SDS011;18310;55.586;12.286;2022-12-18T09:29:02;15.73;;;8.00;;
31730;SDS011;18310;55.586;12.286;2022-12-18T09:32:06;13.98;;;8.00;;
31730;SDS011;18310;55.586;12.286;2022-12-18T09:35:10;14.73;;;7.30;;
31730;SDS011;18310;55.586;12.286;2022-12-18T09:38:13;15.38;;;8.23;;
31730;SDS011;18310;55.586;12.286;2022-12-18T09:41:25;14.18;;;8.15;;
31730;SDS011;18310;55.586;12.286;2022-12-18T09:44:43;16.75;;;8.63;;
31730;SDS011;18310;55.586;12.286;2022-12-18T09:47:52;14.65;;;7.80;;
31730;SDS011;18310;55.586;12.286;2022-12-18T09:50:58;15.63;;;8.40;;
31730;SDS011;18310;55.586;12.286;2022-12-18T09:54:11;15.63;;;8.80;;
31730;SDS011;18310;55.586;12.286;2022-12-18T09:57:23;14.02;;;8.38;;
31730;SDS011;18310;55.586;12.286;2022-12-18T10:00:27;18.73;;;8.57;;
31730;SDS011;18310;55.586;12.286;2022-12-18T10:03:31;13.30;;;7.30;;
31730;SDS011;18310;55.586;12.286;2022-12-18T10:06:35;15.63;;;8.05;;
31730;SDS011;18310;55.586;12.286;2022-12-18T10:09:46;12.63;;;7.30;;
31730;SDS011;18310;55.586;12.286;2022-12-18T10:13:07;14.55;;;7.60;;
31730;SDS011;18310;55.586;12.286;2022-12-18T10:16:25;13.77;;;7.65;;
31730;SDS011;18310;55.586;12.286;2022-12-18T10:19:39;16.03;;;8.03;;
31730;SDS011;18310;55.586;12.286;2022-12-18T10:22:52;16.40;;;7.95;;
31730;SDS011;18310;55.586;12.286;2022-12-18T10:26:06;15.38;;;8.30;;
31730;SDS011;18310;55.586;12.286;2022-12-18T10:29:13;13.95;;;7.22;;
31730;SDS011;18310;55.586;12.286;2022-12-18T10:32:19;14.90;;;7.05;;
31730;SDS011;18310;55.586;12.286;2022-12-18T10:35:26;13.75;;;7.82;;
31730;SDS011;18310;55.586;12.286;2022-12-18T10:38:30;13.52;;;7.22;;
31730;SDS011;18310;55.586;12.286;2022-12-18T10:41:34;14.13;;;8.02;;
31730;SDS011;18310;55.586;12.286;2022-12-18T10:44:38;18.85;;;7.40;;
31730;SDS011;18310;55.586;12.286;2022-12-18T10:47:42;11.98;;;6.40;;
31730;SDS011;18310;55.586;12.286;2022-12-18T10:50:49;12.05;;;6.95;;
31730;SDS011;18310;55.586;12.286;2022-12-18T10:54:14;12.02;;;6.60;;
31730;SDS011;18310;55.586;12.286;2022-12-18T10:57:30;16.17;;;6.43;;
31730;SDS011;18310;55.586;12.286;2022-12-18T11:00:39;14.57;;;6.28;;
31730;SDS011;18310;55.586;12.286;2022-12-18T11:03:44;14.23;;;7.03;;
31730;SDS011;18310;55.586;12.286;2022-12-18T11:06:52;12.10;;;6.68;;
31730;SDS011;18310;55.586;12.286;2022-12-18T11:09:59;14.75;;;7.28;;
31730;SDS011;18310;55.586;12.286;2022-12-18T11:13:11;14.30;;;6.93;;
31730;SDS011;18310;55.586;12.286;2022-12-18T11:16:22;10.43;;;6.13;;
31730;SDS011;18310;55.586;12.286;2022-12-18T11:19:28;13.88;;;6.57;;
31730;SDS011;18310;55.586;12.286;2022-12-18T11:22:36;11.15;;;6.07;;
31730;SDS011;18310;55.586;12.286;2022-12-18T11:25:40;13.38;;;5.80;;
31730;SDS011;18310;55.586;12.286;2022-12-18T11:32:30;11.48;;;5.47;;
31730;SDS011;18310;55.586;12.286;2022-12-18T11:35:39;11.48;;;5.72;;
31730;SDS011;18310;55.586;12.286;2022-12-18T11:38:50;11.45;;;6.65;;
31730;SDS011;18310;55.586;12.286;2022-12-18T11:41:58;12.43;;;5.85;;
31730;SDS011;18310;55.586;12.286;2022-12-18T11:45:20;11.07;;;5.35;;
31730;SDS011;18310;55.586;12.286;2022-12-18T11:48:34;14.57;;;5.70;;
31730;SDS011;18310;55.586;12.286;2022-12-18T11:51:47;10.02;;;5.45;;
31730;SDS011;18310;55.586;12.286;2022-12-18T11:54:56;10.32;;;5.15;;
31730;SDS011;18310;55.586;12.286;2022-12-18T11:58:08;11.32;;;5.57;;
31730;SDS011;18310;55.586;12.286;2022-12-18T12:01:35;10.95;;;5.38;;
31730;SDS011;18310;55.586;12.286;2022-12-18T12:04:59;9.20;;;5.10;;
31730;SDS011;18310;55.586;12.286;2022-12-18T12:08:25;12.45;;;5.60;;
31730;SDS011;18310;55.586;12.286;2022-12-18T12:11:42;12.35;;;5.50;;
31730;SDS011;18310;55.586;12.286;2022-12-18T12:15:06;8.45;;;4.68;;
31730;SDS011;18310;55.586;12.286;2022-12-18T12:18:27;10.30;;;5.35;;
31730;SDS011;18310;55.586;12.286;2022-12-18T12:21:52;6.97;;;4.38;;
31730;SDS011;18310;55.586;12.286;2022-12-18T12:25:05;11.38;;;5.05;;
31730;SDS011;18310;55.586;12.286;2022-12-18T12:28:32;11.05;;;5.47;;
31730;SDS011;18310;55.586;12.286;2022-12-18T12:32:00;10.50;;;5.27;;
31730;SDS011;18310;55.586;12.286;2022-12-18T12:35:26;10.27;;;5.05;;
31730;SDS011;18310;55.586;12.286;2022-12-18T12:38:43;10.27;;;5.45;;
31730;SDS011;18310;55.586;12.286;2022-12-18T12:41:52;12.40;;;5.88;;
31730;SDS011;18310;55.586;12.286;2022-12-18T12:45:15;12.43;;;5.95;;
31730;SDS011;18310;55.586;12.286;2022-12-18T12:48:41;10.82;;;5.53;;
31730;SDS011;18310;55.586;12.286;2022-12-18T12:51:49;13.93;;;6.03;;
31730;SDS011;18310;55.586;12.286;2022-12-18T12:55:04;14.30;;;5.72;;
31730;SDS011;18310;55.586;12.286;2022-12-18T12:58:29;12.00;;;5.90;;
31730;SDS011;18310;55.586;12.286;2022-12-18T13:01:47;14.05;;;5.80;;
31730;SDS011;18310;55.586;12.286;2022-12-18T13:05:01;13.35;;;5.97;;
31730;SDS011;18310;55.586;12.286;2022-12-18T13:08:23;11.63;;;5.63;;
31730;SDS011;18310;55.586;12.286;2022-12-18T13:11:34;12.65;;;5.57;;
31730;SDS011;18310;55.586;12.286;2022-12-18T13:15:11;12.43;;;6.05;;
31730;SDS011;18310;55.586;12.286;2022-12-18T13:18:22;12.45;;;5.93;;
31730;SDS011;18310;55.586;12.286;2022-12-18T13:21:27;10.48;;;5.40;;
31730;SDS011;18310;55.586;12.286;2022-12-18T13:24:32;13.98;;;6.07;;
31730;SDS011;18310;55.586;12.286;2022-12-18T13:27:46;9.03;;;4.63;;
31730;SDS011;18310;55.586;12.286;2022-12-18T13:31:03;10.82;;;5.05;;
31730;SDS011;18310;55.586;12.286;2022-12-18T13:34:09;14.30;;;4.53;;
31730;SDS011;18310;55.586;12.286;2022-12-18T13:37:41;12.07;;;4.75;;
31730;SDS011;18310;55.586;12.286;2022-12-18T13:40:54;8.57;;;4.55;;
31730;SDS011;18310;55.586;12.286;2022-12-18T13:44:11;10.15;;;4.60;;
31730;SDS011;18310;55.586;12.286;2022-12-18T13:47:25;10.05;;;4.97;;
31730;SDS011;18310;55.586;12.286;2022-12-18T13:50:34;11.38;;;4.38;;
31730;SDS011;18310;55.586;12.286;2022-12-18T13:53:38;10.97;;;4.63;;
31730;SDS011;18310;55.586;12.286;2022-12-18T13:56:50;9.02;;;4.65;;
31730;SDS011;18310;55.586;12.286;2022-12-18T13:59:55;12.07;;;5.50;;
31730;SDS011;18310;55.586;12.286;2022-12-18T14:02:59;10.05;;;4.57;;
31730;SDS011;18310;55.586;12.286;2022-12-18T14:06:04;12.85;;;4.95;;
31730;SDS011;18310;55.586;12.286;2022-12-18T14:09:12;12.40;;;5.07;;
31730;SDS011;18310;55.586;12.286;2022-12-18T14:12:22;11.23;;;5.70;;
31730;SDS011;18310;55.586;12.286;2022-12-18T14:15:53;13.05;;;5.47;;
31730;SDS011;18310;55.586;12.286;2022-12-18T14:19:01;13.18;;;5.20;;
31730;SDS011;18310;55.586;12.286;2022-12-18T14:22:16;8.57;;;5.00;;
31730;SDS011;18310;55.586;12.286;2022-12-18T14:25:22;10.43;;;5.55;;
31730;SDS011;18310;55.586;12.286;2022-12-18T14:28:28;10.48;;;4.93;;
31730;SDS011;18310;55.586;12.286;2022-12-18T14:31:33;11.15;;;4.50;;
31730;SDS011;18310;55.586;12.286;2022-12-18T14:34:36;9.30;;;4.50;;
31730;SDS011;18310;55.586;12.286;2022-12-18T14:37:39;12.40;;;5.07;;
31730;SDS011;18310;55.586;12.286;2022-12-18T14:40:42;12.20;;;5.27;;
31730;SDS011;18310;55.586;12.286;2022-12-18T14:43:46;13.27;;;5.65;;
31730;SDS011;18310;55.586;12.286;2022-12-18T14:46:53;13.07;;;5.80;;
31730;SDS011;18310;55.586;12.286;2022-12-18T14:49:56;12.93;;;5.55;;
31730;SDS011;18310;55.586;12.286;2022-12-18T14:52:59;10.30;;;5.27;;
31730;SDS011;18310;55.586;12.286;2022-12-18T14:56:03;12.68;;;5.32;;
31730;SDS011;18310;55.586;12.286;2022-12-18T14:59:19;11.07;;;5.07;;
31730;SDS011;18310;55.586;12.286;2022-12-18T15:02:27;12.48;;;5.32;;
31730;SDS011;18310;55.586;12.286;2022-12-18T15:05:31;12.15;;;5.22;;
31730;SDS011;18310;55.586;12.286;2022-12-18T15:08:35;12.20;;;5.43;;
31730;SDS011;18310;55.586;12.286;2022-12-18T15:11:46;10.30;;;4.75;;
31730;SDS011;18310;55.586;12.286;2022-12-18T15:14:49;13.98;;;5.65;;
31730;SDS011;18310;55.586;12.286;2022-12-18T15:17:57;13.32;;;6.00;;
31730;SDS011;18310;55.586;12.286;2022-12-18T15:21:09;15.43;;;6.45;;
31730;SDS011;18310;55.586;12.286;2022-12-18T15:24:18;13.20;;;6.53;;
31730;SDS011;18310;55.586;12.286;2022-12-18T15:27:29;13.13;;;6.10;;
31730;SDS011;18310;55.586;12.286;2022-12-18T15:30:36;13.82;;;6.65;;
31730;SDS011;18310;55.586;12.286;2022-12-18T15:33:41;11.47;;;5.77;;
31730;SDS011;18310;55.586;12.286;2022-12-18T15:36:49;15.90;;;6.57;;
31730;SDS011;18310;55.586;12.286;2022-12-18T15:39:53;17.77;;;7.03;;
31730;SDS011;18310;55.586;12.286;2022-12-18T15:42:56;12.40;;;6.77;;
31730;SDS011;18310;55.586;12.286;2022-12-18T15:46:17;17.55;;;7.60;;
31730;SDS011;18310;55.586;12.286;2022-12-18T15:49:24;15.93;;;7.55;;
31730;SDS011;18310;55.586;12.286;2022-12-18T15:52:27;18.70;;;7.88;;
31730;SDS011;18310;55.586;12.286;2022-12-18T15:55:33;18.92;;;7.60;;
31730;SDS011;18310;55.586;12.286;2022-12-18T15:59:01;15.13;;;6.82;;
31730;SDS011;18310;55.586;12.286;2022-12-18T16:02:07;16.45;;;7.45;;
31730;SDS011;18310;55.586;12.286;2022-12-18T16:05:21;17.75;;;8.73;;
31730;SDS011;18310;55.586;12.286;2022-12-18T16:08:25;14.65;;;6.88;;
31730;SDS011;18310;55.586;12.286;2022-12-18T16:11:29;16.70;;;6.43;;
31730;SDS011;18310;55.586;12.286;2022-12-18T16:14:42;13.45;;;6.10;;
31730;SDS011;18310;55.586;12.286;2022-12-18T16:17:46;14.20;;;6.30;;
31730;SDS011;18310;55.586;12.286;2022-12-18T16:20:51;11.93;;;5.38;;
31730;SDS011;18310;55.586;12.286;2022-12-18T16:23:57;16.67;;;7.22;;
31730;SDS011;18310;55.586;12.286;2022-12-18T16:27:00;16.53;;;7.10;;
31730;SDS011;18310;55.586;12.286;2022-12-18T16:30:04;15.35;;;7.88;;
31730;SDS011;18310;55.586;12.286;2022-12-18T16:33:09;14.77;;;7.13;;
31730;SDS011;18310;55.586;12.286;2022-12-18T16:36:14;18.88;;;7.57;;
31730;SDS011;18310;55.586;12.286;2022-12-18T16:39:17;14.20;;;7.28;;
31730;SDS011;18310;55.586;12.286;2022-12-18T16:42:20;15.20;;;7.10;;
31730;SDS011;18310;55.586;12.286;2022-12-18T16:45:26;17.90;;;7.63;;
31730;SDS011;18310;55.586;12.286;2022-12-18T16:48:34;16.50;;;7.53;;
31730;SDS011;18310;55.586;12.286;2022-12-18T16:51:39;16.42;;;8.20;;
31730;SDS011;18310;55.586;12.286;2022-12-18T16:54:42;19.73;;;8.05;;
31730;SDS011;18310;55.586;12.286;2022-12-18T16:57:45;18.10;;;8.07;;
31730;SDS011;18310;55.586;12.286;2022-12-18T17:00:48;19.40;;;8.68;;
31730;SDS011;18310;55.586;12.286;2022-12-18T17:03:52;16.93;;;8.27;;
31730;SDS011;18310;55.586;12.286;2022-12-18T17:06:57;20.60;;;9.05;;
31730;SDS011;18310;55.586;12.286;2022-12-18T17:10:00;19.15;;;8.80;;
31730;SDS011;18310;55.586;12.286;2022-12-18T17:13:03;16.73;;;8.17;;
31730;SDS011;18310;55.586;12.286;2022-12-18T17:16:06;23.60;;;9.00;;
31730;SDS011;18310;55.586;12.286;2022-12-18T17:19:11;17.80;;;8.60;;
31730;SDS011;18310;55.586;12.286;2022-12-18T17:22:19;24.88;;;10.07;;
31730;SDS011;18310;55.586;12.286;2022-12-18T17:25:23;22.35;;;9.13;;
31730;SDS011;18310;55.586;12.286;2022-12-18T17:28:27;23.23;;;9.63;;
31730;SDS011;18310;55.586;12.286;2022-12-18T17:31:30;24.47;;;11.30;;
31730;SDS011;18310;55.586;12.286;2022-12-18T17:34:34;23.95;;;10.55;;
31730;SDS011;18310;55.586;12.286;2022-12-18T17:37:39;24.52;;;11.85;;
31730;SDS011;18310;55.586;12.286;2022-12-18T17:40:42;24.98;;;11.15;;
31730;SDS011;18310;55.586;12.286;2022-12-18T17:43:49;21.67;;;10.60;;
31730;SDS011;18310;55.586;12.286;2022-12-18T17:46:53;24.33;;;10.77;;
31730;SDS011;18310;55.586;12.286;2022-12-18T17:49:56;25.27;;;11.60;;
31730;SDS011;18310;55.586;12.286;2022-12-18T17:53:01;27.27;;;12.37;;
31730;SDS011;18310;55.586;12.286;2022-12-18T17:56:05;23.42;;;11.40;;
31730;SDS011;18310;55.586;12.286;2022-12-18T17:59:11;25.52;;;10.93;;
31730;SDS011;18310;55.586;12.286;2022-12-18T18:02:14;25.10;;;10.10;;
31730;SDS011;18310;55.586;12.286;2022-12-18T18:05:18;26.70;;;11.15;;
31730;SDS011;18310;55.586;12.286;2022-12-18T18:08:23;19.85;;;10.25;;
31730;SDS011;18310;55.586;12.286;2022-12-18T18:11:26;25.52;;;10.90;;
31730;SDS011;18310;55.586;12.286;2022-12-18T18:14:47;22.85;;;10.23;;
31730;SDS011;18310;55.586;12.286;2022-12-18T18:17:51;26.17;;;10.18;;
31730;SDS011;18310;55.586;12.286;2022-12-18T18:20:54;28.40;;;10.87;;
31730;SDS011;18310;55.586;12.286;2022-12-18T18:23:59;22.53;;;9.43;;